Time;durP1;ratioP1;P1;durP2;ratioP2;P2;SDS_P1;SDS_P2;PMS_P1;PMS_P2;Temp;Humidity;BMP_temperature;BMP_pressure;BME280_temperature;BME280_humidity;BME280_pressure;Samples;Min_cycle;Max_cycle;Signal;HPM_P1;HPM_P2
2021/09/25 00:00:34;;;;;;;0.45;0.25;;;;;;;;;;4962973;28;20047;-85
2021/09/25 00:03:00;;;;;;;0.30;0.30;;;;;;;;;;4962200;28;20102;-85
2021/09/25 00:05:28;;;;;;;0.20;0.20;;;;;;;;;;4962519;28;20092;-85
2021/09/25 00:07:54;;;;;;;0.15;0.15;;;;;;;;;;4957421;28;20054;-85
2021/09/25 00:10:20;;;;;;;0.10;0.10;;;;;;;;;;4959813;28;20057;-86
2021/09/25 00:12:46;;;;;;;0.30;0.30;;;;;;;;;;4963207;28;20086;-85
2021/09/25 00:15:13;;;;;;;0.30;0.20;;;;;;;;;;4962289;28;20031;-85
2021/09/25 00:17:39;;;;;;;0.20;0.20;;;;;;;;;;4957002;28;20050;-85
2021/09/25 00:20:06;;;;;;;0.10;0.10;;;;;;;;;;4963184;28;20035;-85
2021/09/25 00:22:32;;;;;;;0.22;0.22;;;;;;;;;;4962724;28;20085;-85
2021/09/25 00:24:58;;;;;;;0.30;0.10;;;;;;;;;;4959018;28;20183;-85
2021/09/25 00:27:24;;;;;;;0.98;0.73;;;;;;;;;;4963224;28;20524;-85
2021/09/25 00:29:50;;;;;;;0.17;0.17;;;;;;;;;;4964085;28;20053;-85
2021/09/25 00:32:17;;;;;;;0.98;0.43;;;;;;;;;;4952724;28;20082;-86
2021/09/25 00:34:43;;;;;;;0.22;0.22;;;;;;;;;;4944750;28;20388;-86
2021/09/25 00:37:09;;;;;;;0.63;0.45;;;;;;;;;;4962553;28;20027;-85
2021/09/25 00:39:35;;;;;;;0.40;0.40;;;;;;;;;;4955744;28;20520;-85
2021/09/25 00:42:01;;;;;;;0.83;0.83;;;;;;;;;;4963330;28;20273;-84
2021/09/25 00:44:27;;;;;;;0.30;0.10;;;;;;;;;;4958587;28;20575;-85
2021/09/25 00:46:54;;;;;;;0.80;0.50;;;;;;;;;;4962810;28;20041;-84
2021/09/25 00:49:21;;;;;;;0.10;0.10;;;;;;;;;;4961021;28;20034;-85
2021/09/25 00:51:48;;;;;;;0.20;0.20;;;;;;;;;;4954790;28;20047;-84
2021/09/25 00:54:14;;;;;;;0.15;0.15;;;;;;;;;;4964608;28;20039;-84
2021/09/25 00:56:41;;;;;;;6.38;1.02;;;;;;;;;;4964813;28;20047;-84
2021/09/25 00:59:07;;;;;;;;;;;;;;;;;;4965167;28;20916;-84
2021/09/25 01:01:33;;;;;;;0.35;0.30;;;;;;;;;;4965515;28;19918;-85
2021/09/25 01:03:59;;;;;;;1.13;0.57;;;;;;;;;;4964903;28;20037;-85
2021/09/25 01:06:25;;;;;;;0.30;0.30;;;;;;;;;;4965650;28;20038;-85
2021/09/25 01:08:51;;;;;;;0.20;0.10;;;;;;;;;;4951351;28;20772;-85
2021/09/25 01:11:17;;;;;;;0.10;0.10;;;;;;;;;;4959578;28;20155;-85
2021/09/25 01:13:43;;;;;;;34.38;0.65;;;;;;;;;;4962160;28;20062;-85
2021/09/25 01:16:09;;;;;;;0.52;0.50;;;;;;;;;;4961830;28;20041;-85
2021/09/25 01:18:35;;;;;;;0.20;0.20;;;;;;;;;;4965146;28;20069;-85
2021/09/25 01:21:04;;;;;;;0.57;0.57;;;;;;;;;;4965937;28;25060;-85
2021/09/25 01:23:30;;;;;;;0.20;0.20;;;;;;;;;;4966002;28;20035;-85
2021/09/25 01:25:56;;;;;;;0.10;0.10;;;;;;;;;;4961894;28;20027;-85
2021/09/25 01:28:22;;;;;;;10.07;0.30;;;;;;;;;;4960207;28;20043;-84
2021/09/25 01:30:48;;;;;;;0.23;0.23;;;;;;;;;;4943204;28;20126;-85
2021/09/25 01:33:14;;;;;;;0.10;0.10;;;;;;;;;;4960788;28;20307;-86
2021/09/25 01:35:40;;;;;;;0.13;0.13;;;;;;;;;;4948504;28;20419;-86
2021/09/25 01:38:06;;;;;;;0.10;0.10;;;;;;;;;;4963753;28;20030;-85
2021/09/25 01:40:32;;;;;;;0.40;0.23;;;;;;;;;;4964296;28;20046;-85
2021/09/25 01:42:58;;;;;;;0.40;0.40;;;;;;;;;;4964006;28;20275;-85
2021/09/25 01:45:24;;;;;;;0.38;0.38;;;;;;;;;;4965515;28;20042;-85
2021/09/25 01:47:50;;;;;;;0.63;0.30;;;;;;;;;;4966187;28;20035;-86
2021/09/25 01:50:16;;;;;;;0.20;0.20;;;;;;;;;;4961999;28;20042;-85
2021/09/25 01:52:43;;;;;;;0.40;0.40;;;;;;;;;;4964779;28;20042;-85
2021/09/25 01:55:09;;;;;;;0.25;0.25;;;;;;;;;;4962450;28;20593;-86
2021/09/25 01:57:35;;;;;;;0.20;0.20;;;;;;;;;;4961750;28;20917;-85
2021/09/25 02:00:01;;;;;;;0.30;0.30;;;;;;;;;;4965076;28;20404;-85
2021/09/25 02:02:27;;;;;;;0.15;0.15;;;;;;;;;;4964348;28;20126;-85
2021/09/25 02:04:53;;;;;;;0.20;0.20;;;;;;;;;;4962551;28;20121;-85
2021/09/25 02:07:20;;;;;;;0.10;0.10;;;;;;;;;;4947700;28;20146;-85
2021/09/25 02:09:49;;;;;;;0.57;0.50;;;;;;;;;;4964354;28;20298;-84
2021/09/25 02:12:15;;;;;;;0.60;0.30;;;;;;;;;;4964369;28;20282;-85
2021/09/25 02:14:41;;;;;;;0.10;0.10;;;;;;;;;;4966917;28;20034;-87
2021/09/25 02:17:07;;;;;;;0.15;0.13;;;;;;;;;;4963964;28;20027;-86
2021/09/25 02:19:34;;;;;;;0.15;0.15;;;;;;;;;;4964693;28;20078;-86
2021/09/25 02:22:00;;;;;;;0.20;0.20;;;;;;;;;;4963728;28;20031;-86
2021/09/25 02:24:26;;;;;;;0.13;0.13;;;;;;;;;;4964899;28;20141;-86
2021/09/25 02:26:52;;;;;;;0.75;0.75;;;;;;;;;;4935713;28;20062;-87
2021/09/25 02:29:18;;;;;;;0.10;0.10;;;;;;;;;;4960664;28;20042;-87
2021/09/25 02:31:44;;;;;;;0.15;0.15;;;;;;;;;;4959189;28;20031;-87
2021/09/25 02:34:10;;;;;;;0.00;0.00;;;;;;;;;;4963495;28;20038;-87
2021/09/25 02:36:36;;;;;;;1.03;0.57;;;;;;;;;;4947035;28;20302;-87
2021/09/25 02:39:02;;;;;;;0.15;0.15;;;;;;;;;;4951298;28;20043;-86
2021/09/25 02:41:29;;;;;;;0.60;0.30;;;;;;;;;;4954085;28;21126;-86
2021/09/25 02:43:55;;;;;;;0.90;0.63;;;;;;;;;;4944602;28;20034;-86
2021/09/25 02:46:21;;;;;;;0.33;0.33;;;;;;;;;;4959756;28;20030;-87
2021/09/25 02:48:47;;;;;;;0.20;0.20;;;;;;;;;;4946171;28;20270;-85
2021/09/25 02:51:13;;;;;;;0.00;0.00;;;;;;;;;;4962676;28;20357;-86
2021/09/25 02:53:40;;;;;;;0.20;0.20;;;;;;;;;;4966201;28;20038;-85
2021/09/25 02:56:06;;;;;;;0.40;0.40;;;;;;;;;;4956845;28;20101;-85
2021/09/25 02:58:32;;;;;;;0.50;0.50;;;;;;;;;;4958630;28;20027;-85
2021/09/25 03:00:58;;;;;;;0.20;0.20;;;;;;;;;;4955905;28;20047;-84
2021/09/25 03:03:24;;;;;;;0.82;0.50;;;;;;;;;;4964100;28;20034;-85
2021/09/25 03:05:50;;;;;;;0.10;0.10;;;;;;;;;;4956455;28;20126;-85
2021/09/25 03:08:16;;;;;;;1.83;1.70;;;;;;;;;;4961907;28;20649;-85
2021/09/25 03:10:43;;;;;;;0.15;0.15;;;;;;;;;;4959979;28;20038;-85
2021/09/25 03:13:09;;;;;;;0.38;0.38;;;;;;;;;;4959479;28;20042;-84
2021/09/25 03:15:35;;;;;;;0.10;0.10;;;;;;;;;;4939481;28;20424;-86
2021/09/25 03:18:01;;;;;;;0.83;0.67;;;;;;;;;;4963008;28;20302;-85
2021/09/25 03:20:27;;;;;;;0.00;0.00;;;;;;;;;;4964288;28;20500;-86
2021/09/25 03:22:53;;;;;;;0.10;0.10;;;;;;;;;;4959760;28;20041;-86
2021/09/25 03:25:19;;;;;;;0.25;0.25;;;;;;;;;;4963624;28;20133;-86
2021/09/25 03:27:45;;;;;;;0.17;0.17;;;;;;;;;;4945690;28;20026;-85
2021/09/25 03:30:12;;;;;;;0.10;0.10;;;;;;;;;;4945417;28;20293;-85
2021/09/25 03:32:39;;;;;;;0.63;0.60;;;;;;;;;;4961074;28;20046;-84
2021/09/25 03:35:05;;;;;;;0.22;0.22;;;;;;;;;;4959541;28;20384;-85
2021/09/25 03:37:31;;;;;;;;;;;;;;;;;;4961451;28;20828;-86
2021/09/25 03:39:57;;;;;;;0.55;0.50;;;;;;;;;;4960895;28;19922;-85
2021/09/25 03:42:24;;;;;;;0.23;0.23;;;;;;;;;;4962934;28;20053;-86
2021/09/25 03:44:50;;;;;;;0.30;0.30;;;;;;;;;;4953364;28;20031;-86
2021/09/25 03:47:16;;;;;;;2.00;0.60;;;;;;;;;;4960477;28;20037;-86
2021/09/25 03:49:42;;;;;;;2.03;0.20;;;;;;;;;;4961618;28;20298;-85
2021/09/25 03:52:09;;;;;;;0.10;0.10;;;;;;;;;;4957943;28;20286;-86
2021/09/25 03:54:35;;;;;;;1.08;0.98;;;;;;;;;;4963673;28;20033;-85
2021/09/25 03:57:01;;;;;;;0.10;0.10;;;;;;;;;;4960310;28;20035;-84
2021/09/25 03:59:27;;;;;;;0.10;0.10;;;;;;;;;;4948390;28;20053;-86
2021/09/25 04:01:53;;;;;;;0.40;0.35;;;;;;;;;;4961541;28;20336;-86
2021/09/25 04:04:19;;;;;;;0.20;0.20;;;;;;;;;;4963440;28;20054;-86
2021/09/25 04:06:45;;;;;;;0.23;0.23;;;;;;;;;;4956417;28;20274;-84
2021/09/25 04:09:11;;;;;;;0.20;0.20;;;;;;;;;;4963705;28;20087;-85
2021/09/25 04:11:37;;;;;;;0.33;0.33;;;;;;;;;;4940080;28;20054;-86
2021/09/25 04:14:03;;;;;;;0.13;0.13;;;;;;;;;;4958501;28;20026;-84
2021/09/25 04:16:29;;;;;;;0.85;0.70;;;;;;;;;;4945344;28;20038;-84
2021/09/25 04:18:56;;;;;;;0.88;0.38;;;;;;;;;;4967142;28;20058;-85
2021/09/25 04:21:22;;;;;;;0.10;0.10;;;;;;;;;;4967281;28;20396;-84
2021/09/25 04:23:48;;;;;;;0.17;0.17;;;;;;;;;;4968458;28;20058;-85
2021/09/25 04:26:16;;;;;;;0.10;0.10;;;;;;;;;;4967976;28;20030;-85
2021/09/25 04:28:42;;;;;;;0.20;0.20;;;;;;;;;;4966351;28;20278;-85
2021/09/25 04:31:08;;;;;;;1.70;0.37;;;;;;;;;;4965759;28;20035;-86
2021/09/25 04:33:34;;;;;;;0.67;0.63;;;;;;;;;;4956025;28;20376;-85
2021/09/25 04:36:00;;;;;;;0.63;0.63;;;;;;;;;;4959981;28;20050;-86
2021/09/25 04:38:26;;;;;;;0.00;0.00;;;;;;;;;;4961583;28;20062;-86
2021/09/25 04:40:52;;;;;;;1.03;0.77;;;;;;;;;;4964287;28;20306;-86
2021/09/25 04:43:18;;;;;;;0.17;0.17;;;;;;;;;;4965384;28;20030;-87
2021/09/25 04:45:44;;;;;;;0.20;0.20;;;;;;;;;;4965921;28;20098;-86
2021/09/25 04:48:10;;;;;;;0.50;0.50;;;;;;;;;;4966370;28;20065;-86
2021/09/25 04:50:36;;;;;;;0.00;0.00;;;;;;;;;;4967010;28;20361;-87
2021/09/25 04:53:06;;;;;;;0.40;0.40;;;;;;;;;;4965317;28;20334;-85
2021/09/25 04:55:32;;;;;;;0.20;0.20;;;;;;;;;;4965319;28;20049;-86
2021/09/25 04:57:58;;;;;;;0.20;0.20;;;;;;;;;;4965153;28;20030;-87
2021/09/25 05:00:24;;;;;;;0.03;0.03;;;;;;;;;;4966427;28;20038;-87
2021/09/25 05:02:50;;;;;;;0.32;0.32;;;;;;;;;;4967390;28;20037;-86
2021/09/25 05:05:16;;;;;;;0.20;0.20;;;;;;;;;;4965947;28;20511;-87
2021/09/25 05:07:42;;;;;;;0.10;0.10;;;;;;;;;;4964925;28;20101;-86
2021/09/25 05:10:09;;;;;;;0.07;0.07;;;;;;;;;;4964832;28;20047;-86
2021/09/25 05:12:35;;;;;;;0.10;0.10;;;;;;;;;;4965324;28;20333;-87
2021/09/25 05:15:01;;;;;;;0.13;0.13;;;;;;;;;;4966338;28;20066;-87
2021/09/25 05:17:27;;;;;;;0.10;0.10;;;;;;;;;;4966410;28;20101;-87
2021/09/25 05:19:53;;;;;;;0.10;0.10;;;;;;;;;;4965483;28;20312;-88
2021/09/25 05:22:20;;;;;;;0.10;0.10;;;;;;;;;;4947878;28;20031;-88
2021/09/25 05:24:46;;;;;;;0.20;0.20;;;;;;;;;;4965406;28;20555;-87
2021/09/25 05:27:15;;;;;;;0.63;0.32;;;;;;;;;;4967938;28;20031;-90
2021/09/25 05:29:41;;;;;;;0.30;0.20;;;;;;;;;;4964022;28;20395;-87
2021/09/25 05:32:07;;;;;;;0.10;0.10;;;;;;;;;;4965770;28;20030;-89
2021/09/25 05:34:34;;;;;;;0.10;0.10;;;;;;;;;;4961173;28;20050;-88
2021/09/25 05:37:00;;;;;;;0.32;0.32;;;;;;;;;;4965063;28;20031;-88
2021/09/25 05:39:26;;;;;;;0.40;0.40;;;;;;;;;;4964835;28;20048;-88
2021/09/25 05:41:52;;;;;;;0.40;0.40;;;;;;;;;;4966933;28;20061;-88
2021/09/25 05:44:18;;;;;;;0.25;0.25;;;;;;;;;;4951271;28;20031;-87
2021/09/25 05:46:44;;;;;;;0.22;0.22;;;;;;;;;;4965162;28;20110;-88
2021/09/25 05:49:10;;;;;;;0.38;0.20;;;;;;;;;;4964658;28;20484;-87
2021/09/25 05:51:36;;;;;;;0.32;0.32;;;;;;;;;;4959749;28;20043;-87
2021/09/25 05:54:02;;;;;;;0.33;0.33;;;;;;;;;;4965798;28;20043;-87
2021/09/25 05:56:28;;;;;;;0.13;0.13;;;;;;;;;;4967411;28;20366;-86
2021/09/25 05:58:54;;;;;;;0.37;0.37;;;;;;;;;;4962340;28;20035;-87
2021/09/25 06:01:20;;;;;;;0.27;0.27;;;;;;;;;;4957582;28;20301;-87
2021/09/25 06:03:46;;;;;;;2.10;1.23;;;;;;;;;;4947837;28;20035;-86
2021/09/25 06:06:13;;;;;;;22.33;0.67;;;;;;;;;;4965342;28;20357;-86
2021/09/25 06:08:39;;;;;;;0.20;0.20;;;;;;;;;;4963025;28;20058;-86
2021/09/25 06:11:05;;;;;;;0.65;0.52;;;;;;;;;;4941067;28;20142;-85
2021/09/25 06:13:31;;;;;;;0.10;0.10;;;;;;;;;;4960180;28;20065;-82
2021/09/25 06:15:57;;;;;;;0.28;0.28;;;;;;;;;;4964704;28;20294;-83
2021/09/25 06:18:23;;;;;;;0.40;0.40;;;;;;;;;;4964964;28;20613;-82
2021/09/25 06:20:49;;;;;;;0.70;0.70;;;;;;;;;;4966069;28;20468;-82
2021/09/25 06:23:15;;;;;;;0.40;0.40;;;;;;;;;;4965777;28;20058;-81
2021/09/25 06:25:41;;;;;;;0.10;0.10;;;;;;;;;;4963900;28;20064;-82
2021/09/25 06:28:07;;;;;;;0.30;0.30;;;;;;;;;;4964179;28;20029;-83
2021/09/25 06:30:40;;;;;;;1.30;0.90;;;;;;;;;;4964562;28;20427;-84
2021/09/25 06:33:06;;;;;;;0.63;0.52;;;;;;;;;;4964584;28;20035;-85
2021/09/25 06:35:32;;;;;;;0.10;0.10;;;;;;;;;;4966289;28;20030;-85
2021/09/25 06:37:58;;;;;;;0.00;0.00;;;;;;;;;;4963493;28;20041;-86
2021/09/25 06:40:24;;;;;;;0.30;0.30;;;;;;;;;;4963837;28;20302;-85
2021/09/25 06:42:50;;;;;;;0.20;0.20;;;;;;;;;;4962792;28;20112;-85
2021/09/25 06:45:16;;;;;;;0.20;0.20;;;;;;;;;;4963817;28;20046;-87
2021/09/25 06:47:42;;;;;;;0.20;0.10;;;;;;;;;;4966198;28;20274;-87
2021/09/25 06:50:08;;;;;;;0.73;0.40;;;;;;;;;;4963637;28;20695;-85
2021/09/25 06:52:34;;;;;;;0.10;0.10;;;;;;;;;;4963790;28;20722;-86
2021/09/25 06:55:01;;;;;;;0.20;0.20;;;;;;;;;;4964103;28;20035;-86
2021/09/25 06:57:29;;;;;;;0.20;0.20;;;;;;;;;;4964164;28;20030;-86
2021/09/25 06:59:55;;;;;;;0.00;0.00;;;;;;;;;;4964353;28;20074;-85
2021/09/25 07:02:21;;;;;;;0.23;0.23;;;;;;;;;;4965704;28;20443;-85
2021/09/25 07:04:47;;;;;;;0.20;0.20;;;;;;;;;;4963812;28;20030;-86
2021/09/25 07:07:14;;;;;;;0.10;0.10;;;;;;;;;;4963254;28;20499;-86
2021/09/25 07:09:41;;;;;;;0.10;0.10;;;;;;;;;;4960419;28;20062;-85
2021/09/25 07:12:10;;;;;;;0.10;0.10;;;;;;;;;;4962158;28;20074;-85
2021/09/25 07:14:37;;;;;;;0.17;0.17;;;;;;;;;;4947215;28;20146;-86
2021/09/25 07:17:03;;;;;;;0.30;0.30;;;;;;;;;;4960153;28;20062;-86
2021/09/25 07:19:29;;;;;;;0.50;0.50;;;;;;;;;;4962198;28;20077;-86
2021/09/25 07:21:55;;;;;;;0.10;0.10;;;;;;;;;;4962587;28;20421;-86
2021/09/25 07:24:22;;;;;;;0.10;0.10;;;;;;;;;;4960423;28;20059;-86
2021/09/25 07:26:48;;;;;;;0.10;0.10;;;;;;;;;;4963597;28;20041;-86
2021/09/25 07:29:14;;;;;;;0.25;0.25;;;;;;;;;;4961568;28;20050;-86
2021/09/25 07:31:40;;;;;;;0.10;0.10;;;;;;;;;;4962613;28;20034;-86
2021/09/25 07:34:06;;;;;;;0.20;0.20;;;;;;;;;;4963588;28;20027;-85
2021/09/25 07:36:32;;;;;;;0.05;0.05;;;;;;;;;;4963135;28;20633;-86
2021/09/25 07:38:58;;;;;;;0.52;0.52;;;;;;;;;;4963379;28;20058;-85
2021/09/25 07:41:24;;;;;;;0.38;0.38;;;;;;;;;;4965134;28;20038;-86
2021/09/25 07:43:51;;;;;;;0.73;0.50;;;;;;;;;;4945692;28;20031;-84
2021/09/25 07:46:17;;;;;;;0.00;0.00;;;;;;;;;;4963355;28;20113;-86
2021/09/25 07:48:43;;;;;;;0.10;0.10;;;;;;;;;;4961410;28;20031;-84
2021/09/25 07:51:09;;;;;;;0.08;0.08;;;;;;;;;;4964107;28;20096;-85
2021/09/25 07:53:35;;;;;;;0.13;0.10;;;;;;;;;;4963786;28;20664;-85
2021/09/25 07:56:01;;;;;;;0.25;0.10;;;;;;;;;;4957740;28;20792;-84
2021/09/25 07:58:27;;;;;;;0.20;0.20;;;;;;;;;;4961340;28;20578;-85
2021/09/25 08:00:53;;;;;;;0.00;0.00;;;;;;;;;;4947979;28;20051;-84
2021/09/25 08:03:19;;;;;;;0.40;0.40;;;;;;;;;;4966668;28;20023;-84
2021/09/25 08:05:46;;;;;;;0.00;0.00;;;;;;;;;;4965360;28;20034;-84
2021/09/25 08:08:12;;;;;;;0.10;0.10;;;;;;;;;;4967720;28;20114;-85
2021/09/25 08:10:38;;;;;;;0.30;0.20;;;;;;;;;;4967309;28;20031;-84
2021/09/25 08:13:04;;;;;;;0.17;0.17;;;;;;;;;;4966353;28;20069;-85
2021/09/25 08:15:30;;;;;;;0.08;0.08;;;;;;;;;;4965142;28;20038;-84
2021/09/25 08:17:57;;;;;;;0.10;0.10;;;;;;;;;;4967345;28;20531;-85
2021/09/25 08:20:24;;;;;;;0.20;0.20;;;;;;;;;;4968664;28;20039;-84
2021/09/25 08:22:50;;;;;;;0.13;0.13;;;;;;;;;;4948697;28;20034;-85
2021/09/25 08:25:17;;;;;;;0.05;0.05;;;;;;;;;;4945464;28;20038;-86
2021/09/25 08:27:43;;;;;;;0.13;0.13;;;;;;;;;;4965127;28;20853;-85
2021/09/25 08:30:10;;;;;;;0.00;0.00;;;;;;;;;;4963972;28;20035;-87
2021/09/25 08:32:36;;;;;;;0.43;0.28;;;;;;;;;;4968743;28;20117;-85
2021/09/25 08:35:07;;;;;;;0.10;0.10;;;;;;;;;;4966877;28;20031;-86
2021/09/25 08:37:33;;;;;;;1.83;0.88;;;;;;;;;;4966588;28;20283;-85
2021/09/25 08:39:59;;;;;;;0.00;0.00;;;;;;;;;;4958915;28;20031;-85
2021/09/25 08:42:26;;;;;;;0.00;0.00;;;;;;;;;;4957934;28;20049;-85
2021/09/25 08:44:53;;;;;;;0.15;0.10;;;;;;;;;;4961751;28;20469;-85
2021/09/25 08:47:19;;;;;;;0.43;0.43;;;;;;;;;;4963799;28;20086;-85
2021/09/25 08:49:45;;;;;;;0.38;0.38;;;;;;;;;;4965819;28;20077;-84
2021/09/25 08:52:11;;;;;;;0.55;0.20;;;;;;;;;;4965666;28;20149;-84
2021/09/25 08:54:37;;;;;;;0.05;0.05;;;;;;;;;;4961093;28;20039;-84
2021/09/25 08:57:04;;;;;;;0.00;0.00;;;;;;;;;;4964884;28;20041;-84
2021/09/25 08:59:30;;;;;;;;;;;;;;;;;;4966715;28;20038;-84
2021/09/25 09:01:56;;;;;;;;;;;;;;;;;;4947056;28;20324;-83
2021/09/25 09:04:22;;;;;;;0.20;0.20;;;;;;;;;;4963641;28;19918;-83
2021/09/25 09:06:49;;;;;;;0.20;0.10;;;;;;;;;;4964659;28;20037;-84
2021/09/25 09:09:15;;;;;;;0.20;0.20;;;;;;;;;;4964930;28;20495;-83
2021/09/25 09:11:42;;;;;;;0.05;0.05;;;;;;;;;;4967469;28;20066;-83
2021/09/25 09:14:08;;;;;;;0.20;0.05;;;;;;;;;;4964119;28;20062;-83
2021/09/25 09:16:34;;;;;;;0.10;0.10;;;;;;;;;;4964819;28;20062;-83
2021/09/25 09:19:01;;;;;;;0.10;0.10;;;;;;;;;;4946936;28;20376;-83
2021/09/25 09:21:27;;;;;;;;;;;;;;;;;;4963782;28;20114;-84
2021/09/25 09:23:53;;;;;;;;;;;;;;;;;;4966871;28;20662;-82
2021/09/25 09:26:23;;;;;;;0.13;0.13;;;;;;;;;;4965719;28;19920;-83
2021/09/25 09:28:50;;;;;;;2.08;0.90;;;;;;;;;;4964129;28;20034;-83
2021/09/25 09:31:16;;;;;;;0.47;0.30;;;;;;;;;;4964932;28;20404;-83
2021/09/25 09:33:42;;;;;;;2.15;0.98;;;;;;;;;;4964982;28;20037;-83
2021/09/25 09:36:20;;;;;;;0.28;0.28;;;;;;;;;;4964128;28;20038;-83
2021/09/25 09:38:50;;;;;;;0.13;0.13;;;;;;;;;;4960608;28;20019;-83
2021/09/25 09:41:21;;;;;;;0.38;0.35;;;;;;;;;;4946781;28;20885;-83
2021/09/25 09:43:47;;;;;;;2.78;1.08;;;;;;;;;;4963546;28;20685;-83
2021/09/25 09:46:14;;;;;;;0.20;0.20;;;;;;;;;;4964495;28;20031;-82
2021/09/25 09:48:40;;;;;;;0.10;0.10;;;;;;;;;;4963828;28;20019;-84
2021/09/25 09:51:06;;;;;;;0.13;0.13;;;;;;;;;;4963736;28;20526;-82
2021/09/25 09:53:41;;;;;;;0.20;0.20;;;;;;;;;;4966613;28;20038;-82
2021/09/25 09:56:20;;;;;;;0.35;0.25;;;;;;;;;;4963649;28;20117;-82
2021/09/25 09:58:56;;;;;;;0.25;0.17;;;;;;;;;;4950543;28;20051;-83
2021/09/25 10:01:22;;;;;;;1.30;0.40;;;;;;;;;;4964025;28;20031;-83
2021/09/25 10:03:48;;;;;;;;;;;;;;;;;;4957945;28;20027;-83
2021/09/25 10:06:14;;;;;;;;;;;;;;;;;;4964427;28;19974;-82
2021/09/25 10:08:40;;;;;;;0.10;0.10;;;;;;;;;;4966552;28;19906;-82
2021/09/25 10:11:06;;;;;;;0.03;0.03;;;;;;;;;;4965028;28;20046;-82
2021/09/25 10:13:33;;;;;;;0.40;0.40;;;;;;;;;;4964563;28;20039;-83
2021/09/25 10:16:00;;;;;;;0.20;0.20;;;;;;;;;;4963372;28;20043;-82
2021/09/25 10:18:25;;;;;;;;;;;;;;;;;;4964888;28;20034;-82
2021/09/25 10:20:52;;;;;;;0.40;0.40;;;;;;;;;;4948054;28;19922;-83
2021/09/25 10:23:19;;;;;;;0.17;0.17;;;;;;;;;;4965587;28;20031;-83
2021/09/25 10:25:46;;;;;;;0.15;0.10;;;;;;;;;;4947220;28;20591;-83
2021/09/25 10:28:25;;;;;;;0.10;0.10;;;;;;;;;;4963606;28;20042;-83
2021/09/25 10:30:51;;;;;;;0.17;0.17;;;;;;;;;;4962960;28;20098;-83
2021/09/25 10:33:17;;;;;;;;;;;;;;;;;;4964993;28;20035;-83
2021/09/25 10:35:43;;;;;;;;;;;;;;;;;;4967008;28;19913;-82
2021/09/25 10:38:09;;;;;;;;;;;;;;;;;;4965014;28;20268;-83
2021/09/25 10:40:37;;;;;;;0.00;0.00;;;;;;;;;;4964233;28;20457;-82
2021/09/25 10:43:16;;;;;;;0.10;0.10;;;;;;;;;;4964659;28;20042;-83
2021/09/25 10:45:42;;;;;;;0.00;0.00;;;;;;;;;;4964184;28;20034;-83
2021/09/25 10:48:11;;;;;;;0.57;0.57;;;;;;;;;;4964279;28;20035;-83
2021/09/25 10:50:57;;;;;;;0.10;0.10;;;;;;;;;;4966283;28;20038;-84
2021/09/25 10:53:25;;;;;;;0.20;0.17;;;;;;;;;;4965466;28;20178;-83
2021/09/25 10:55:52;;;;;;;0.00;0.00;;;;;;;;;;4961038;28;20074;-85
2021/09/25 10:58:25;;;;;;;0.40;0.32;;;;;;;;;;4968174;23;20030;-84
2021/09/25 11:01:09;;;;;;;0.85;0.63;;;;;;;;;;4956731;28;20423;-84
2021/09/25 11:06:07;;;;;;;2.20;0.95;;;;;;;;;;4964821;28;20571;-83
2021/09/25 11:08:34;;;;;;;0.10;0.10;;;;;;;;;;4967441;28;20047;-85
2021/09/25 11:11:11;;;;;;;1.27;0.50;;;;;;;;;;4967034;28;20059;-86
2021/09/25 11:13:55;;;;;;;0.20;0.20;;;;;;;;;;4967909;28;20035;-86
2021/09/25 11:16:41;;;;;;;0.10;0.10;;;;;;;;;;4963392;28;20034;-86
2021/09/25 11:19:10;;;;;;;0.10;0.10;;;;;;;;;;4967816;28;20641;-87
2021/09/25 11:21:36;;;;;;;0.10;0.10;;;;;;;;;;4960220;28;20045;-87
2021/09/25 11:24:03;;;;;;;0.08;0.08;;;;;;;;;;4962514;28;20495;-86
2021/09/25 11:26:29;;;;;;;1.42;0.73;;;;;;;;;;4969706;28;20038;-86
2021/09/25 11:29:07;;;;;;;0.50;0.50;;;;;;;;;;4967622;28;20061;-85
2021/09/25 11:31:33;;;;;;;0.63;0.43;;;;;;;;;;4967546;28;20030;-87
2021/09/25 11:33:59;;;;;;;0.10;0.08;;;;;;;;;;4960849;28;20035;-86
2021/09/25 11:36:30;;;;;;;1.25;0.55;;;;;;;;;;4975572;28;20055;-87
2021/09/25 11:38:56;;;;;;;0.85;0.45;;;;;;;;;;4963984;28;20035;-87
2021/09/25 11:41:22;;;;;;;0.63;0.55;;;;;;;;;;4969249;28;20045;-86
2021/09/25 11:43:57;;;;;;;0.13;0.10;;;;;;;;;;4967044;28;20445;-86
2021/09/25 11:46:25;;;;;;;0.03;0.03;;;;;;;;;;4964890;28;20027;-87
2021/09/25 11:48:57;;;;;;;0.47;0.45;;;;;;;;;;4957215;28;20109;-87
2021/09/25 11:51:24;;;;;;;0.10;0.10;;;;;;;;;;4960672;28;20038;-89
2021/09/25 11:53:53;;;;;;;0.38;0.38;;;;;;;;;;4961214;28;20451;-87
2021/09/25 11:56:29;;;;;;;0.32;0.32;;;;;;;;;;4964195;28;20726;-87
2021/09/25 11:58:59;;;;;;;1.00;0.47;;;;;;;;;;4952933;28;20055;-87
2021/09/25 12:01:25;;;;;;;0.38;0.28;;;;;;;;;;4947988;28;20054;-87
2021/09/25 12:03:51;;;;;;;0.35;0.10;;;;;;;;;;4947941;28;20031;-86
2021/09/25 12:06:17;;;;;;;0.57;0.20;;;;;;;;;;4946194;28;20036;-86
2021/09/25 12:08:48;;;;;;;1.15;0.50;;;;;;;;;;4950167;28;20038;-85
2021/09/25 12:11:14;;;;;;;0.20;0.20;;;;;;;;;;4974740;28;20029;-85
2021/09/25 12:13:43;;;;;;;0.17;0.10;;;;;;;;;;4970806;28;20030;-84
2021/09/25 12:16:21;;;;;;;0.00;0.00;;;;;;;;;;4967775;28;20162;-86
2021/09/25 12:18:49;;;;;;;0.10;0.10;;;;;;;;;;4955934;28;20027;-86
2021/09/25 12:21:19;;;;;;;0.03;0.03;;;;;;;;;;4949885;28;20039;-85
2021/09/25 12:24:06;;;;;;;0.20;0.20;;;;;;;;;;4948442;28;20495;-86
2021/09/25 12:26:34;;;;;;;0.65;0.65;;;;;;;;;;4951995;28;20465;-85
2021/09/25 12:29:04;;;;;;;0.77;0.40;;;;;;;;;;4950269;28;20074;-85
2021/09/25 12:31:30;;;;;;;0.13;0.10;;;;;;;;;;4945786;28;20062;-85
2021/09/25 12:33:56;;;;;;;1.00;0.63;;;;;;;;;;4951170;28;20031;-86
2021/09/25 12:36:27;;;;;;;1.58;0.88;;;;;;;;;;4949902;28;20039;-84
2021/09/25 12:38:53;;;;;;;0.38;0.38;;;;;;;;;;4951009;28;20314;-85
2021/09/25 12:41:26;;;;;;;0.10;0.10;;;;;;;;;;4954354;28;20055;-87
2021/09/25 12:43:57;;;;;;;0.05;0.05;;;;;;;;;;4954988;28;20074;-86
2021/09/25 12:46:36;;;;;;;0.22;0.22;;;;;;;;;;4955007;28;20077;-86
2021/09/25 12:49:11;;;;;;;0.20;0.20;;;;;;;;;;4956058;28;20022;-85
2021/09/25 12:52:10;;;;;;;0.63;0.15;;;;;;;;;;4955171;28;20097;-85
2021/09/25 12:54:37;;;;;;;0.15;0.15;;;;;;;;;;4953004;28;21164;-87
2021/09/25 12:57:05;;;;;;;3.92;1.52;;;;;;;;;;4941252;28;20117;-86
2021/09/25 12:59:32;;;;;;;0.10;0.10;;;;;;;;;;4952526;28;20070;-86
2021/09/25 13:02:06;;;;;;;0.30;0.30;;;;;;;;;;4954321;28;20031;-86
2021/09/25 13:04:38;;;;;;;0.20;0.20;;;;;;;;;;4950410;28;20030;-85
2021/09/25 13:07:04;;;;;;;5.63;1.02;;;;;;;;;;4936348;28;20105;-86
2021/09/25 13:09:43;;;;;;;0.50;0.25;;;;;;;;;;4955087;28;20034;-86
2021/09/25 13:12:14;;;;;;;0.50;0.50;;;;;;;;;;4938357;28;20034;-86
2021/09/25 13:14:41;;;;;;;0.85;0.40;;;;;;;;;;4952908;28;20420;-87
2021/09/25 13:17:07;;;;;;;0.47;0.10;;;;;;;;;;4941139;29;20456;-86
2021/09/25 13:19:33;;;;;;;1.95;0.93;;;;;;;;;;4956650;28;20043;-84
2021/09/25 13:22:03;;;;;;;0.25;0.20;;;;;;;;;;4950021;28;20082;-83
2021/09/25 13:24:29;;;;;;;0.28;0.13;;;;;;;;;;4958824;28;20042;-84
2021/09/25 13:26:55;;;;;;;1.13;0.77;;;;;;;;;;4947076;28;20068;-84
2021/09/25 13:29:21;;;;;;;0.43;0.43;;;;;;;;;;4959749;28;20050;-83
2021/09/25 13:31:47;;;;;;;3.80;0.30;;;;;;;;;;4958920;28;20085;-83
2021/09/25 13:34:13;;;;;;;0.63;0.40;;;;;;;;;;4958871;28;20416;-83
2021/09/25 13:36:39;;;;;;;0.00;0.00;;;;;;;;;;4961155;28;20031;-84
2021/09/25 13:39:05;;;;;;;0.05;0.05;;;;;;;;;;4963017;28;20136;-84
2021/09/25 13:41:31;;;;;;;0.32;0.32;;;;;;;;;;4967140;28;20567;-84
2021/09/25 13:43:57;;;;;;;0.45;0.35;;;;;;;;;;4959818;28;20086;-80
2021/09/25 13:46:23;;;;;;;0.43;0.43;;;;;;;;;;4960096;28;20169;-80
2021/09/25 13:48:50;;;;;;;1.25;0.85;;;;;;;;;;4958200;28;20035;-80
2021/09/25 13:51:16;;;;;;;;;;;;;;;;;;4964732;28;20028;-80
2021/09/25 13:53:43;;;;;;;0.82;0.30;;;;;;;;;;4960629;28;19926;-80
2021/09/25 13:56:09;;;;;;;0.30;0.30;;;;;;;;;;4960198;28;20041;-80
2021/09/25 13:58:36;;;;;;;0.45;0.32;;;;;;;;;;4959476;28;20034;-80
2021/09/25 14:01:02;;;;;;;0.38;0.38;;;;;;;;;;4959242;28;20055;-80
2021/09/25 14:03:28;;;;;;;0.25;0.10;;;;;;;;;;4962789;28;20399;-80
2021/09/25 14:05:54;;;;;;;0.38;0.38;;;;;;;;;;4959523;28;20121;-81
2021/09/25 14:08:20;;;;;;;0.00;0.00;;;;;;;;;;4949577;28;20031;-80
2021/09/25 14:10:47;;;;;;;0.20;0.20;;;;;;;;;;4947731;28;20665;-80
2021/09/25 14:13:13;;;;;;;14.13;1.95;;;;;;;;;;4950759;28;20035;-80
2021/09/25 14:15:39;;;;;;;0.05;0.05;;;;;;;;;;4946968;28;20058;-80
2021/09/25 14:18:07;;;;;;;0.63;0.63;;;;;;;;;;4948324;28;20046;-80
2021/09/25 14:20:36;;;;;;;1.27;0.32;;;;;;;;;;4954963;28;20023;-91
2021/09/25 14:23:02;;;;;;;0.20;0.20;;;;;;;;;;4954937;28;20035;-86
2021/09/25 14:25:28;;;;;;;0.55;0.55;;;;;;;;;;4951988;28;20069;-87
2021/09/25 14:27:54;;;;;;;29.63;1.98;;;;;;;;;;4947930;28;20500;-88
2021/09/25 14:30:20;;;;;;;1.60;0.80;;;;;;;;;;4952640;28;20087;-87
2021/09/25 14:32:46;;;;;;;0.30;0.20;;;;;;;;;;4950941;28;20126;-88
2021/09/25 14:35:12;;;;;;;1.45;1.08;;;;;;;;;;4969955;28;20069;-88
2021/09/25 14:37:38;;;;;;;0.55;0.55;;;;;;;;;;4951780;28;20038;-86
2021/09/25 14:40:05;;;;;;;1.38;0.80;;;;;;;;;;4950216;28;20050;-86
2021/09/25 14:42:31;;;;;;;1.98;0.65;;;;;;;;;;4957066;28;20480;-85
2021/09/25 14:44:57;;;;;;;0.05;0.05;;;;;;;;;;4960578;28;20043;-86
2021/09/25 14:47:23;;;;;;;0.50;0.38;;;;;;;;;;4956839;28;20031;-87